createdAt,value
2022-11-28T00:02:14.617Z,171.80
2022-11-28T00:07:38.182Z,152.03
2022-11-28T00:13:00.696Z,127.87
2022-11-28T00:18:22.952Z,129.30
2022-11-28T00:23:45.589Z,125.47
2022-11-28T00:29:10.107Z,124.72
2022-11-28T00:34:33.267Z,129.50
2022-11-28T00:39:55.536Z,115.03
2022-11-28T00:45:18.689Z,118.13
2022-11-28T00:50:40.925Z,108.53
2022-11-28T00:56:03.109Z,113.83
2022-11-28T01:01:35.991Z,112.60
2022-11-28T01:07:02.604Z,114.30
2022-11-28T01:12:24.801Z,113.03
2022-11-28T01:17:46.987Z,113.63
2022-11-28T01:23:09.823Z,108.87
2022-11-28T01:28:32.073Z,107.70
2022-11-28T01:33:55.129Z,103.77
2022-11-28T01:39:17.433Z,108.57
2022-11-28T01:44:50.414Z,100.03
2022-11-28T01:50:14.157Z,103.47
2022-11-28T01:55:41.320Z,100.00
2022-11-28T02:01:03.697Z,100.67
2022-11-28T02:06:28.757Z,106.53
2022-11-28T02:12:36.468Z,104.78
2022-11-28T02:18:03.572Z,92.93
2022-11-28T02:23:30.673Z,106.47
2022-11-28T02:29:15.918Z,99.17
2022-11-28T02:34:52.678Z,97.33
2022-11-28T02:46:23.128Z,99.67
2022-11-28T02:51:53.151Z,98.83
2022-11-28T02:57:15.448Z,98.93
2022-11-28T03:02:40.855Z,100.40
2022-11-28T03:08:20.031Z,99.77
2022-11-28T03:14:04.831Z,108.47
2022-11-28T03:19:46.152Z,106.47
2022-11-28T03:25:13.529Z,101.50
2022-11-28T03:30:59.139Z,119.53
2022-11-28T03:36:32.467Z,108.97
2022-11-28T03:42:08.646Z,101.97
2022-11-28T03:47:31.384Z,88.87
2022-11-28T03:53:08.028Z,97.37
2022-11-28T03:58:43.621Z,100.30
2022-11-28T04:04:21.871Z,103.13
2022-11-28T04:10:01.684Z,99.97
2022-11-28T04:15:50.158Z,104.70
2022-11-28T04:21:35.286Z,105.87
2022-11-28T04:27:02.336Z,80.27
2022-11-28T04:32:27.141Z,79.70
2022-11-28T04:37:52.092Z,83.03
2022-11-28T04:43:22.202Z,72.93
2022-11-28T04:48:45.332Z,73.50
2022-11-28T04:54:45.808Z,76.20
2022-11-28T05:00:11.032Z,75.30
2022-11-28T05:05:37.128Z,72.80
2022-11-28T05:11:01.235Z,65.20
2022-11-28T05:16:24.760Z,70.13
2022-11-28T05:21:47.184Z,63.97
2022-11-28T05:27:11.119Z,71.63
2022-11-28T05:32:36.655Z,69.87
2022-11-28T05:37:58.879Z,69.63
2022-11-28T05:43:21.086Z,73.37
2022-11-28T05:48:43.851Z,70.07
2022-11-28T05:54:06.488Z,65.30
2022-11-28T05:59:28.842Z,70.40
2022-11-28T06:04:51.130Z,59.65
2022-11-28T06:10:14.436Z,63.92
2022-11-28T06:15:38.652Z,62.60
2022-11-28T06:21:01.255Z,63.33
2022-11-28T06:26:27.071Z,56.33
2022-11-28T06:31:49.495Z,64.67
2022-11-28T06:37:12.290Z,57.50
2022-11-28T06:42:34.492Z,52.53
2022-11-28T06:47:56.909Z,48.43
2022-11-28T06:53:19.731Z,51.73
2022-11-28T06:58:42.003Z,52.25
2022-11-28T07:04:05.530Z,48.13
2022-11-28T07:09:27.758Z,46.90
2022-11-28T07:14:51.505Z,49.53
2022-11-28T07:20:14.803Z,54.90
2022-11-28T07:25:37.138Z,58.63
2022-11-28T07:31:06.910Z,57.67
2022-11-28T07:41:53.656Z,61.25
2022-11-28T07:47:16.680Z,57.83
2022-11-28T07:52:39.034Z,56.00
2022-11-28T07:58:01.264Z,60.13
2022-11-28T08:03:23.992Z,53.40
2022-11-28T08:08:47.785Z,49.25
2022-11-28T08:14:11.197Z,56.68
2022-11-28T08:19:35.407Z,53.60
2022-11-28T08:24:57.455Z,58.40
2022-11-28T08:30:20.648Z,60.10
2022-11-28T08:35:45.402Z,60.20
2022-11-28T08:41:14.106Z,59.40
2022-11-28T08:46:38.431Z,65.65
2022-11-28T08:52:00.678Z,66.13
2022-11-28T08:57:23.328Z,67.15
2022-11-28T09:02:45.583Z,73.67
2022-11-28T09:08:11.677Z,69.95
2022-11-28T09:13:33.484Z,85.42
2022-11-28T09:18:57.866Z,73.77
2022-11-28T09:24:21.096Z,64.07
2022-11-28T09:29:43.627Z,68.33
2022-11-28T09:35:06.275Z,68.47
2022-11-28T09:40:36.981Z,83.22
2022-11-28T09:46:01.860Z,76.60
2022-11-28T09:51:31.786Z,77.87
2022-11-28T10:02:43.082Z,81.80
2022-11-28T10:08:19.161Z,77.23
2022-11-28T10:14:13.770Z,75.43
2022-11-28T10:19:57.396Z,73.47
2022-11-28T10:25:00.156Z,75.90
2022-11-28T10:30:43.463Z,70.78
2022-11-28T10:36:09.288Z,68.60
2022-11-28T10:41:44.357Z,64.42
2022-11-28T10:47:11.489Z,59.77
2022-11-28T10:52:42.017Z,68.60
2022-11-28T10:58:21.246Z,69.40
2022-11-28T11:03:55.209Z,49.13
2022-11-28T11:09:18.583Z,54.07
2022-11-28T11:14:47.062Z,53.90
2022-11-28T11:20:09.253Z,46.33
2022-11-28T11:25:37.239Z,44.13
2022-11-28T11:31:06.843Z,41.47
2022-11-28T11:36:42.797Z,46.37
2022-11-28T11:42:16.557Z,45.07
2022-11-28T11:47:47.950Z,39.00
2022-11-28T11:53:25.116Z,42.13
2022-11-28T11:58:59.595Z,40.53
2022-11-28T12:10:04.501Z,48.10
2022-11-28T12:15:35.845Z,49.37
2022-11-28T12:21:11.466Z,50.23
2022-11-28T12:27:03.994Z,42.93
2022-11-28T12:32:48.923Z,41.93
2022-11-28T12:38:37.598Z,40.03
2022-11-28T12:44:24.940Z,42.83
2022-11-28T12:49:54.964Z,37.77
2022-11-28T12:55:43.513Z,39.30
2022-11-28T13:01:42.078Z,38.10
2022-11-28T13:07:12.263Z,40.60
2022-11-28T13:13:07.757Z,48.87
2022-11-28T13:18:43.829Z,48.87
2022-11-28T13:24:42.337Z,42.87
2022-11-28T13:30:36.137Z,44.23
2022-11-28T13:36:00.226Z,42.62
2022-11-28T13:42:09.719Z,43.52
2022-11-28T13:47:02.172Z,42.03
2022-11-28T13:52:41.666Z,41.33
2022-11-28T13:58:04.777Z,42.20
2022-11-28T14:03:32.831Z,45.03
2022-11-28T14:09:12.666Z,43.68
2022-11-28T14:14:48.313Z,46.80
2022-11-28T14:20:29.320Z,44.30
2022-11-28T14:25:55.450Z,44.33
2022-11-28T14:31:55.387Z,44.08
2022-11-28T14:37:29.472Z,43.73
2022-11-28T14:43:02.033Z,45.17
2022-11-28T14:48:42.925Z,49.83
2022-11-28T14:54:06.796Z,49.70
2022-11-28T14:59:33.023Z,49.00
2022-11-28T15:05:37.334Z,44.40
2022-11-28T15:11:07.844Z,47.20
2022-11-28T15:16:33.870Z,37.47
2022-11-28T15:22:05.682Z,41.47
2022-11-28T15:27:32.076Z,45.37
2022-11-28T15:32:54.634Z,45.27
2022-11-28T15:38:19.345Z,40.53
2022-11-28T15:43:44.259Z,43.27
2022-11-28T15:49:10.731Z,50.45
2022-11-28T15:54:49.259Z,50.10
2022-11-28T16:00:12.400Z,48.83
2022-11-28T16:05:37.337Z,52.15
2022-11-28T16:11:02.616Z,51.53
2022-11-28T16:16:29.882Z,56.37
2022-11-28T16:22:12.109Z,50.12
2022-11-28T16:27:57.547Z,56.45
2022-11-28T16:33:45.866Z,53.60
2022-11-28T16:39:23.222Z,61.17
2022-11-28T16:44:46.339Z,56.77
2022-11-28T16:50:32.918Z,58.47
2022-11-28T16:55:58.910Z,63.67
2022-11-28T17:01:21.991Z,60.37
2022-11-28T17:06:49.097Z,68.10
2022-11-28T17:12:37.490Z,62.78
2022-11-28T17:18:09.695Z,74.23
2022-11-28T17:23:31.896Z,76.07
2022-11-28T17:28:54.650Z,68.17
2022-11-28T17:34:18.586Z,72.60
2022-11-28T17:39:42.981Z,66.83
2022-11-28T17:45:05.183Z,68.73
2022-11-28T17:50:28.081Z,70.47
2022-11-28T17:55:55.753Z,74.77
2022-11-28T18:01:27.050Z,71.83
2022-11-28T18:06:51.782Z,74.57
2022-11-28T18:12:14.677Z,68.83
2022-11-28T18:17:37.122Z,69.62
2022-11-28T18:22:59.725Z,68.45
2022-11-28T18:28:22.930Z,69.25
2022-11-28T18:33:48.526Z,73.37
2022-11-28T18:39:23.867Z,66.43
2022-11-28T18:44:46.702Z,74.47
2022-11-28T18:50:09.202Z,69.20
2022-11-28T18:55:31.432Z,68.70
2022-11-28T19:00:53.842Z,61.77
2022-11-28T19:06:17.678Z,61.97
2022-11-28T19:11:41.250Z,61.60
2022-11-28T19:17:04.669Z,61.17
2022-11-28T19:22:26.967Z,69.90
2022-11-28T19:27:49.625Z,62.83
2022-11-28T19:33:12.116Z,56.90
2022-11-28T19:38:35.754Z,58.33
2022-11-28T19:43:58.837Z,56.50
2022-11-28T19:49:26.756Z,65.93
2022-11-28T19:54:49.520Z,57.10
2022-11-28T20:00:12.502Z,60.10
2022-11-28T20:05:36.029Z,57.77
2022-11-28T20:10:59.197Z,57.45
2022-11-28T20:16:24.446Z,54.90
2022-11-28T20:21:47.256Z,57.73
2022-11-28T20:27:09.799Z,63.23
2022-11-28T20:32:32.015Z,64.80
2022-11-28T20:37:55.395Z,56.87
2022-11-28T20:43:17.731Z,62.00
2022-11-28T20:48:40.666Z,55.13
2022-11-28T20:54:05.428Z,58.47
2022-11-28T20:59:29.719Z,56.92
2022-11-28T21:04:51.990Z,55.60
2022-11-28T21:10:15.172Z,55.67
2022-11-28T21:15:38.523Z,59.95
2022-11-28T21:21:02.553Z,55.60
2022-11-28T21:26:30.497Z,55.27
2022-11-28T21:31:55.612Z,57.60
2022-11-28T21:37:18.781Z,54.33
2022-11-28T21:42:41.468Z,53.35
2022-11-28T21:48:04.496Z,58.28
2022-11-28T21:53:27.391Z,58.15
2022-11-28T21:58:49.797Z,56.45
2022-11-28T22:04:13.755Z,51.30
2022-11-28T22:09:35.977Z,58.67
2022-11-28T22:14:58.653Z,59.63
2022-11-28T22:20:21.114Z,53.75
2022-11-28T22:25:43.469Z,59.30
2022-11-28T22:31:05.979Z,55.70
2022-11-28T22:36:32.654Z,52.40
2022-11-28T22:41:54.898Z,52.40
2022-11-28T22:47:17.419Z,51.20
2022-11-28T22:52:39.738Z,55.08
2022-11-28T22:58:01.976Z,56.40
2022-11-28T23:03:24.404Z,52.20
2022-11-28T23:08:48.298Z,54.77
2022-11-28T23:14:13.309Z,58.17
2022-11-28T23:19:37.261Z,55.58
2022-11-28T23:24:59.630Z,50.03
2022-11-28T23:30:22.180Z,50.30
2022-11-28T23:35:44.470Z,53.10
2022-11-28T23:41:08.837Z,54.80
2022-11-28T23:46:33.734Z,48.33
2022-11-28T23:51:56.141Z,53.87
2022-11-28T23:57:18.508Z,49.85
